Terminal Aerodrome Forecast
Issued by NWS

Home | Current Version | Previous Version | Text Only | Print | Product List | Glossary On
Versions: 1 2 3 4 5 6 7 8 9 10 11 12 13 14 15 16 17 18 19 20 21 22 23 24 25 26 27 28 29 30
000
FTAK31 PAFA 291120
TAFAQT
TAF
PAQT 291120Z 2912/3012 20005KT P6SM OVC090
     FM291800 27006KT P6SM BKN050
     FM300000 02010KT P6SM SCT100
     FM300400 02007KT P6SM FEW200=

USA.gov is the U.S. government's official web portal to all federal, state and local government web resources and services.